createdAt,value
2022-09-07T00:00:32.025Z,5.53
2022-09-07T00:03:01.598Z,4.78
2022-09-07T00:05:31.435Z,4.15
2022-09-07T00:08:01.577Z,10.55
2022-09-07T00:10:31.220Z,3.42
2022-09-07T00:13:03.477Z,4.43
2022-09-07T00:15:33.052Z,3.78
2022-09-07T00:18:02.537Z,2.50
2022-09-07T00:20:32.018Z,5.13
2022-09-07T00:23:01.513Z,2.63
2022-09-07T00:25:32.162Z,5.20
2022-09-07T00:28:04.927Z,2.70
2022-09-07T00:30:34.414Z,3.40
2022-09-07T00:33:03.886Z,5.03
2022-09-07T00:35:33.369Z,3.10
2022-09-07T00:38:02.853Z,4.55
2022-09-07T00:40:32.901Z,5.03
2022-09-07T00:43:05.000Z,5.63
2022-09-07T00:45:34.541Z,4.03
2022-09-07T00:48:06.284Z,8.02
2022-09-07T00:50:38.518Z,4.28
2022-09-07T00:53:11.504Z,37.15
2022-09-07T00:55:43.932Z,4.70
2022-09-07T00:58:16.124Z,3.95
2022-09-07T01:00:46.537Z,5.00
2022-09-07T01:03:17.802Z,5.22
2022-09-07T01:05:50.934Z,4.20
2022-09-07T01:08:20.620Z,4.07
2022-09-07T01:10:50.225Z,4.32
2022-09-07T01:13:22.363Z,5.35
2022-09-07T01:15:56.384Z,3.78
2022-09-07T01:18:30.900Z,3.13
2022-09-07T01:21:23.794Z,4.82
2022-09-07T01:24:22.600Z,3.83
2022-09-07T01:27:23.403Z,4.25
2022-09-07T01:29:58.271Z,3.70
2022-09-07T01:32:35.068Z,4.82
2022-09-07T01:35:06.783Z,3.30
2022-09-07T01:37:41.936Z,5.60
2022-09-07T01:40:16.218Z,3.65
2022-09-07T01:42:54.293Z,3.45
2022-09-07T01:45:28.801Z,2.25
2022-09-07T01:47:59.829Z,5.28
2022-09-07T01:50:31.536Z,5.00
2022-09-07T01:53:03.716Z,2.58
2022-09-07T01:55:36.155Z,3.30
2022-09-07T01:58:12.600Z,3.42
2022-09-07T02:00:45.130Z,3.03
2022-09-07T02:03:17.697Z,2.63
2022-09-07T02:05:51.135Z,2.28
2022-09-07T02:08:24.095Z,3.65
2022-09-07T02:10:58.301Z,4.20
2022-09-07T02:13:34.016Z,3.20
2022-09-07T02:16:06.828Z,3.35
2022-09-07T02:18:39.325Z,2.40
2022-09-07T02:21:10.779Z,2.58
2022-09-07T02:23:44.003Z,2.25
2022-09-07T02:26:17.134Z,3.05
2022-09-07T02:28:49.304Z,2.45
2022-09-07T02:31:18.934Z,2.58
2022-09-07T02:33:48.800Z,3.70
2022-09-07T02:36:21.211Z,3.60
2022-09-07T02:38:50.767Z,2.58
2022-09-07T02:41:35.543Z,4.22
2022-09-07T02:44:10.841Z,4.25
2022-09-07T02:46:53.616Z,2.58
2022-09-07T02:49:44.508Z,2.55
2022-09-07T02:52:21.529Z,3.13
2022-09-07T02:55:01.128Z,3.00
2022-09-07T02:57:41.450Z,2.60
2022-09-07T03:00:16.617Z,2.60
2022-09-07T03:02:53.945Z,3.33
2022-09-07T03:05:26.232Z,3.15
2022-09-07T03:07:58.987Z,3.20
2022-09-07T03:10:29.158Z,3.40
2022-09-07T03:12:58.674Z,6.45
2022-09-07T03:15:31.184Z,5.80
2022-09-07T03:18:00.775Z,3.53
2022-09-07T03:20:30.310Z,3.50
2022-09-07T03:22:59.873Z,3.60
2022-09-07T03:25:29.454Z,14.43
2022-09-07T03:27:58.988Z,5.70
2022-09-07T03:30:31.189Z,3.58
2022-09-07T03:33:00.778Z,3.67
2022-09-07T03:35:30.581Z,5.53
2022-09-07T03:38:00.282Z,7.65
2022-09-07T03:40:29.910Z,4.53
2022-09-07T03:42:59.407Z,3.50
2022-09-07T03:45:31.498Z,4.40
2022-09-07T03:48:01.084Z,4.00
2022-09-07T03:50:30.613Z,4.57
2022-09-07T03:53:00.427Z,5.00
2022-09-07T03:55:29.975Z,5.90
2022-09-07T03:57:59.967Z,7.03
2022-09-07T04:00:32.151Z,4.68
2022-09-07T04:03:01.644Z,6.90
2022-09-07T04:05:31.175Z,7.05
2022-09-07T04:08:00.673Z,10.80
2022-09-07T04:10:30.173Z,5.70
2022-09-07T04:12:59.645Z,9.40
2022-09-07T04:15:34.364Z,5.38
2022-09-07T04:18:04.502Z,6.95
2022-09-07T04:20:34.002Z,6.55
2022-09-07T04:23:03.620Z,4.20
2022-09-07T04:25:33.110Z,5.18
2022-09-07T04:28:02.610Z,6.43
2022-09-07T04:30:37.170Z,8.13
2022-09-07T04:33:06.728Z,6.07
2022-09-07T04:35:39.154Z,5.97
2022-09-07T04:38:09.238Z,7.00
2022-09-07T04:40:39.111Z,8.15
2022-09-07T04:43:09.640Z,6.60
2022-09-07T04:45:41.987Z,5.78
2022-09-07T04:48:11.562Z,8.57
2022-09-07T04:50:41.390Z,9.68
2022-09-07T04:53:10.910Z,9.70
2022-09-07T04:55:40.436Z,9.70
2022-09-07T04:58:09.941Z,9.40
2022-09-07T05:00:42.108Z,9.02
2022-09-07T05:03:12.069Z,10.65
2022-09-07T05:05:41.686Z,10.93
2022-09-07T05:08:11.235Z,9.18
2022-09-07T05:10:40.909Z,10.98
2022-09-07T05:13:10.479Z,10.20
2022-09-07T05:15:42.593Z,11.30
2022-09-07T05:18:12.992Z,7.63
2022-09-07T05:20:42.527Z,9.25
2022-09-07T05:23:12.656Z,10.68
2022-09-07T05:25:46.156Z,8.30
2022-09-07T05:28:29.016Z,7.90
2022-09-07T05:31:21.738Z,10.60
2022-09-07T05:36:42.407Z,8.27
2022-09-07T05:39:12.535Z,7.18
2022-09-07T05:41:42.234Z,7.53
2022-09-07T05:47:03.956Z,6.30
2022-09-07T05:49:33.571Z,10.07
2022-09-07T05:52:03.096Z,5.93
2022-09-07T05:54:32.649Z,6.93
2022-09-07T05:57:03.371Z,7.18
2022-09-07T05:59:33.098Z,6.15
2022-09-07T06:02:05.403Z,5.93
2022-09-07T06:04:35.441Z,6.18
2022-09-07T06:07:20.989Z,4.53
2022-09-07T06:12:43.431Z,4.75
2022-09-07T06:15:16.533Z,5.82
2022-09-07T06:17:48.861Z,4.90
2022-09-07T06:20:18.504Z,8.55
2022-09-07T06:22:48.094Z,5.97
2022-09-07T06:25:17.916Z,5.38
2022-09-07T06:27:52.063Z,7.10
2022-09-07T06:30:21.622Z,4.00
2022-09-07T06:32:53.812Z,3.80
2022-09-07T06:35:23.335Z,4.47
2022-09-07T06:37:52.861Z,4.53
2022-09-07T06:40:22.874Z,3.80
2022-09-07T06:42:52.508Z,4.70
2022-09-07T06:45:22.151Z,4.32
2022-09-07T06:47:56.335Z,3.28
2022-09-07T06:50:27.810Z,4.88
2022-09-07T06:55:46.986Z,5.65
2022-09-07T06:58:16.627Z,5.82
2022-09-07T07:00:46.208Z,6.40
2022-09-07T07:03:18.449Z,8.70
2022-09-07T07:05:53.526Z,9.40
2022-09-07T07:08:23.771Z,11.90
2022-09-07T07:10:53.821Z,18.20
2022-09-07T07:15:53.665Z,15.63
2022-09-07T07:18:25.879Z,18.00
2022-09-07T07:20:55.377Z,20.63
2022-09-07T07:23:24.902Z,22.13
2022-09-07T07:25:54.443Z,19.83
2022-09-07T07:31:17.334Z,18.70
2022-09-07T07:33:49.567Z,18.90
2022-09-07T07:36:22.515Z,21.20
2022-09-07T07:39:00.979Z,14.93
2022-09-07T07:44:23.146Z,14.85
2022-09-07T07:46:53.495Z,17.00
2022-09-07T07:49:25.855Z,12.32
2022-09-07T07:54:46.119Z,11.65
2022-09-07T07:57:16.889Z,9.57
2022-09-07T07:59:46.402Z,9.02
2022-09-07T08:02:17.473Z,9.02
2022-09-07T08:04:49.546Z,8.23
2022-09-07T08:07:19.305Z,8.40
2022-09-07T08:09:50.096Z,11.15
2022-09-07T08:12:21.234Z,9.18
2022-09-07T08:14:51.165Z,7.38
2022-09-07T08:17:20.665Z,9.60
2022-09-07T08:19:53.259Z,7.68
2022-09-07T08:22:22.734Z,9.60
2022-09-07T08:24:52.192Z,5.90
2022-09-07T08:27:22.266Z,6.22
2022-09-07T08:29:51.758Z,3.97
2022-09-07T08:32:21.235Z,4.15
2022-09-07T08:34:53.307Z,4.03
2022-09-07T08:37:23.002Z,3.72
2022-09-07T08:39:52.517Z,3.72
2022-09-07T08:42:42.362Z,2.60
2022-09-07T08:45:14.773Z,6.00
2022-09-07T08:47:47.720Z,3.22
2022-09-07T08:50:22.663Z,5.32
2022-09-07T08:52:54.889Z,3.97
2022-09-07T08:55:31.244Z,4.43
2022-09-07T08:58:14.558Z,3.95
2022-09-07T09:06:45.381Z,5.03
2022-09-07T09:09:21.380Z,2.55
2022-09-07T09:11:55.661Z,3.47
2022-09-07T09:14:31.597Z,3.00
2022-09-07T09:17:03.131Z,2.08
2022-09-07T09:19:50.029Z,3.80
2022-09-07T09:22:25.686Z,2.30
2022-09-07T09:24:59.593Z,4.30
2022-09-07T09:27:29.059Z,2.95
2022-09-07T09:29:58.736Z,2.60
2022-09-07T09:32:41.399Z,3.70
2022-09-07T09:35:17.182Z,3.92
2022-09-07T09:37:49.276Z,1.92
2022-09-07T09:40:25.125Z,3.87
2022-09-07T09:43:05.939Z,5.10
2022-09-07T09:48:39.315Z,8.60
2022-09-07T09:54:06.011Z,4.00
2022-09-07T09:56:42.447Z,6.18
2022-09-07T10:05:29.662Z,2.90
2022-09-07T10:07:59.539Z,2.25
2022-09-07T10:10:32.781Z,2.80
2022-09-07T10:13:02.387Z,5.30
2022-09-07T10:15:40.564Z,2.88
2022-09-07T10:18:21.298Z,2.33
2022-09-07T10:20:51.172Z,3.70
2022-09-07T10:23:25.884Z,2.75
2022-09-07T10:25:58.061Z,4.50
2022-09-07T10:29:06.386Z,4.40
2022-09-07T10:31:20.883Z,3.20
2022-09-07T10:36:47.378Z,3.53
2022-09-07T10:41:54.730Z,3.38
2022-09-07T10:44:30.072Z,3.08
2022-09-07T10:47:04.153Z,3.22
2022-09-07T10:49:38.505Z,3.50
2022-09-07T10:52:17.417Z,3.15
2022-09-07T10:54:51.690Z,3.65
2022-09-07T10:57:48.858Z,3.22
2022-09-07T11:00:20.746Z,2.85
2022-09-07T11:06:10.955Z,5.25
2022-09-07T11:12:04.047Z,2.90
2022-09-07T11:14:41.122Z,4.05
2022-09-07T11:17:16.277Z,2.42
2022-09-07T11:19:49.950Z,2.88
2022-09-07T11:22:26.462Z,4.72
2022-09-07T11:27:52.581Z,2.60
2022-09-07T11:30:26.710Z,2.97
2022-09-07T11:33:01.793Z,4.72
2022-09-07T11:35:39.411Z,4.50
2022-09-07T11:38:17.363Z,3.97
2022-09-07T11:40:55.798Z,3.70
2022-09-07T11:43:27.823Z,3.45
2022-09-07T11:46:02.617Z,2.97
2022-09-07T11:48:35.276Z,4.30
2022-09-07T11:51:11.234Z,4.03
2022-09-07T11:53:45.960Z,4.25
2022-09-07T11:56:18.249Z,3.53
2022-09-07T11:59:00.910Z,6.30
2022-09-07T12:01:39.516Z,5.40
2022-09-07T12:04:31.253Z,3.70
2022-09-07T12:07:35.183Z,5.60
2022-09-07T12:10:20.986Z,5.32
2022-09-07T12:13:07.890Z,7.75
2022-09-07T12:15:47.899Z,3.90
2022-09-07T12:18:29.753Z,4.35
2022-09-07T12:20:59.672Z,4.45
2022-09-07T12:23:33.092Z,4.03
2022-09-07T12:26:32.779Z,4.22
2022-09-07T12:29:35.052Z,6.35
2022-09-07T12:32:53.077Z,5.97
2022-09-07T12:35:00.592Z,4.72
2022-09-07T12:37:44.042Z,4.93
2022-09-07T12:40:43.478Z,4.20
2022-09-07T12:43:48.783Z,4.97
2022-09-07T12:46:49.012Z,5.78
2022-09-07T12:49:42.578Z,5.20
2022-09-07T12:52:53.893Z,3.20
2022-09-07T12:59:04.157Z,11.70
2022-09-07T13:01:42.079Z,5.45
2022-09-07T13:04:41.171Z,5.15
2022-09-07T13:07:46.838Z,3.28
2022-09-07T13:10:30.812Z,2.97
2022-09-07T13:13:08.023Z,5.07
2022-09-07T13:15:42.623Z,5.95
2022-09-07T13:18:15.286Z,5.40
2022-09-07T13:20:44.908Z,3.08
2022-09-07T13:23:32.273Z,3.55
2022-09-07T13:26:03.154Z,8.68
2022-09-07T13:28:56.048Z,4.53
2022-09-07T13:31:45.445Z,6.30
2022-09-07T13:34:47.930Z,3.50
2022-09-07T13:37:23.430Z,6.20
2022-09-07T13:39:55.269Z,3.92
2022-09-07T13:42:27.441Z,4.30
2022-09-07T13:45:02.286Z,4.50
2022-09-07T13:47:42.623Z,2.83
2022-09-07T13:50:26.147Z,3.55
2022-09-07T13:55:47.105Z,3.92
2022-09-07T13:58:18.511Z,3.53
2022-09-07T14:01:02.646Z,5.35
2022-09-07T14:03:35.822Z,4.90
2022-09-07T14:06:35.810Z,5.25
2022-09-07T14:09:08.408Z,3.67
2022-09-07T14:11:46.445Z,5.30
2022-09-07T14:14:18.925Z,3.55
2022-09-07T14:16:52.705Z,2.37
2022-09-07T14:19:25.099Z,3.55
2022-09-07T14:22:02.837Z,5.82
2022-09-07T14:24:36.598Z,3.13
2022-09-07T14:27:07.545Z,4.45
2022-09-07T14:29:38.536Z,5.00
2022-09-07T14:32:13.545Z,4.50
2022-09-07T14:34:44.795Z,5.28
2022-09-07T14:37:16.276Z,6.50
2022-09-07T14:39:49.291Z,5.90
2022-09-07T14:42:23.141Z,4.00
2022-09-07T14:44:57.769Z,4.43
2022-09-07T14:47:33.790Z,3.58
2022-09-07T14:50:06.954Z,6.53
2022-09-07T14:52:43.672Z,2.72
2022-09-07T14:55:33.262Z,4.38
2022-09-07T14:58:25.332Z,4.35
2022-09-07T15:04:02.425Z,3.58
2022-09-07T15:09:31.998Z,3.28
2022-09-07T15:12:18.264Z,3.65
2022-09-07T15:14:48.167Z,3.80
2022-09-07T15:20:37.497Z,4.50
2022-09-07T15:23:08.156Z,4.45
2022-09-07T15:25:38.460Z,4.45
2022-09-07T15:28:08.029Z,2.28
2022-09-07T15:30:37.760Z,4.05
2022-09-07T15:33:07.458Z,2.95
2022-09-07T15:35:39.635Z,3.55
2022-09-07T15:41:21.997Z,2.35
2022-09-07T15:43:49.603Z,2.47
2022-09-07T15:46:19.252Z,2.22
2022-09-07T15:48:52.878Z,4.53
2022-09-07T15:54:16.716Z,1.93
2022-09-07T15:57:48.389Z,4.18
2022-09-07T15:59:37.877Z,4.88
2022-09-07T16:03:04.583Z,3.28
2022-09-07T16:04:57.692Z,3.28
2022-09-07T16:10:20.096Z,4.47
2022-09-07T16:13:11.203Z,12.57
2022-09-07T16:15:45.821Z,3.53
2022-09-07T16:18:17.538Z,1.95
2022-09-07T16:20:52.463Z,4.90
2022-09-07T16:23:25.244Z,4.68
2022-09-07T16:25:59.097Z,4.22
2022-09-07T16:28:29.466Z,9.63
2022-09-07T16:30:59.214Z,8.32
2022-09-07T16:33:36.075Z,6.05
2022-09-07T16:36:09.352Z,7.38
2022-09-07T16:38:55.365Z,5.45
2022-09-07T16:41:27.534Z,3.00
2022-09-07T16:43:57.163Z,6.35
2022-09-07T16:46:28.958Z,4.47
2022-09-07T16:48:58.549Z,8.00
2022-09-07T16:51:28.768Z,3.35
2022-09-07T16:54:01.492Z,3.63
2022-09-07T16:56:38.247Z,3.23
2022-09-07T16:59:09.528Z,3.85
2022-09-07T17:01:40.454Z,6.35
2022-09-07T17:04:11.419Z,2.65
2022-09-07T17:06:42.270Z,1.95
2022-09-07T17:09:15.112Z,2.88
2022-09-07T17:11:44.772Z,6.78
2022-09-07T17:14:14.367Z,6.18
2022-09-07T17:16:44.398Z,3.70
2022-09-07T17:19:31.857Z,3.47
2022-09-07T17:22:02.408Z,3.03
2022-09-07T17:24:34.622Z,7.55
2022-09-07T17:27:04.317Z,5.40
2022-09-07T17:29:37.181Z,9.18
2022-09-07T17:32:24.486Z,6.78
2022-09-07T17:34:55.438Z,4.40
2022-09-07T17:37:25.709Z,5.55
2022-09-07T17:39:58.831Z,6.90
2022-09-07T17:43:38.800Z,5.85
2022-09-07T17:45:18.122Z,4.95
2022-09-07T17:47:50.450Z,3.08
2022-09-07T17:50:20.114Z,6.40
2022-09-07T17:52:53.026Z,2.78
2022-09-07T17:55:25.301Z,6.32
2022-09-07T17:57:54.870Z,4.18
2022-09-07T18:00:24.757Z,3.70
2022-09-07T18:02:54.499Z,4.60
2022-09-07T18:05:24.364Z,3.35
2022-09-07T18:07:53.949Z,3.85
2022-09-07T18:10:26.630Z,2.70
2022-09-07T18:12:56.918Z,8.48
2022-09-07T18:15:26.530Z,6.93
2022-09-07T18:17:57.188Z,10.77
2022-09-07T18:20:26.828Z,5.65
2022-09-07T18:22:57.781Z,4.75
2022-09-07T18:25:30.973Z,5.97
2022-09-07T18:30:50.233Z,8.43
2022-09-07T18:33:19.830Z,4.47
2022-09-07T18:35:49.476Z,8.13
2022-09-07T18:38:19.189Z,6.78
2022-09-07T18:40:51.369Z,7.22
2022-09-07T18:43:20.986Z,8.55
2022-09-07T18:45:50.626Z,8.70
2022-09-07T18:48:20.233Z,6.82
2022-09-07T18:50:56.219Z,10.15
2022-09-07T18:53:25.854Z,10.18
2022-09-07T18:56:04.229Z,7.63
2022-09-07T18:58:34.382Z,7.30
2022-09-07T19:01:08.826Z,11.02
2022-09-07T19:03:38.835Z,7.25
2022-09-07T19:06:09.932Z,9.93
2022-09-07T19:08:40.612Z,7.65
2022-09-07T19:11:14.677Z,6.70
2022-09-07T19:13:44.405Z,6.72
2022-09-07T19:16:16.256Z,7.45
2022-09-07T19:18:48.138Z,5.05
2022-09-07T19:21:19.737Z,6.40
2022-09-07T19:23:56.466Z,8.65
2022-09-07T19:26:30.372Z,9.65
2022-09-07T19:31:31.996Z,5.20
2022-09-07T19:34:02.638Z,5.50
2022-09-07T19:36:34.968Z,6.13
2022-09-07T19:39:05.486Z,5.13
2022-09-07T19:41:40.950Z,5.72
2022-09-07T19:44:11.186Z,8.90
2022-09-07T19:46:41.475Z,5.43
2022-09-07T19:49:12.240Z,5.95
2022-09-07T19:51:42.296Z,8.63
2022-09-07T19:54:12.540Z,7.50
2022-09-07T19:56:45.648Z,7.72
2022-09-07T19:59:15.439Z,9.13
2022-09-07T20:01:47.246Z,10.18
2022-09-07T20:04:20.276Z,12.30
2022-09-07T20:06:50.949Z,5.22
2022-09-07T20:09:21.495Z,6.80
2022-09-07T20:11:53.745Z,5.32
2022-09-07T20:14:23.343Z,5.22
2022-09-07T20:16:52.993Z,9.18
2022-09-07T20:19:22.586Z,5.35
2022-09-07T20:21:55.684Z,4.85
2022-09-07T20:24:25.400Z,8.27
2022-09-07T20:26:57.623Z,8.23
2022-09-07T20:29:28.855Z,9.10
2022-09-07T20:31:59.889Z,10.00
2022-09-07T20:34:29.852Z,6.97
2022-09-07T20:36:59.514Z,6.00
2022-09-07T20:39:29.137Z,5.63
2022-09-07T20:42:02.296Z,7.03
2022-09-07T20:44:31.888Z,5.13
2022-09-07T20:47:01.552Z,10.05
2022-09-07T20:49:31.150Z,5.68
2022-09-07T20:52:00.767Z,5.85
2022-09-07T20:54:30.384Z,6.82
2022-09-07T20:57:04.130Z,5.47
2022-09-07T21:02:03.774Z,6.13
2022-09-07T21:04:33.385Z,9.60
2022-09-07T21:07:03.537Z,5.25
2022-09-07T21:09:33.137Z,6.82
2022-09-07T21:12:05.950Z,5.35
2022-09-07T21:14:35.616Z,7.40
2022-09-07T21:17:05.281Z,9.20
2022-09-07T21:19:36.879Z,5.68
2022-09-07T21:22:06.482Z,7.78
2022-09-07T21:24:36.107Z,8.02
2022-09-07T21:27:08.530Z,5.75
2022-09-07T21:29:38.118Z,5.95
2022-09-07T21:32:08.021Z,6.40
2022-09-07T21:34:37.615Z,7.97
2022-09-07T21:37:07.266Z,4.78
2022-09-07T21:39:36.908Z,5.75
2022-09-07T21:42:09.327Z,5.70
2022-09-07T21:44:38.871Z,6.60
2022-09-07T21:47:08.837Z,5.57
2022-09-07T21:49:38.454Z,4.88
2022-09-07T21:52:08.086Z,5.70
2022-09-07T21:54:38.222Z,4.50
2022-09-07T21:57:10.464Z,6.38
2022-09-07T21:59:40.023Z,5.78
2022-09-07T22:02:09.668Z,5.50
2022-09-07T22:04:39.288Z,5.47
2022-09-07T22:07:09.026Z,4.80
2022-09-07T22:09:38.595Z,4.03
2022-09-07T22:12:11.141Z,4.35
2022-09-07T22:14:40.765Z,3.88
2022-09-07T22:17:10.378Z,4.05
2022-09-07T22:19:40.199Z,6.28
2022-09-07T22:22:09.826Z,7.35
2022-09-07T22:24:39.530Z,3.08
2022-09-07T22:27:11.772Z,2.97
2022-09-07T22:29:41.362Z,4.65
2022-09-07T22:32:10.955Z,3.90
2022-09-07T22:34:40.550Z,3.47
2022-09-07T22:37:10.420Z,3.40
2022-09-07T22:39:40.005Z,3.42
2022-09-07T22:42:12.227Z,3.33
2022-09-07T22:44:41.842Z,4.28
2022-09-07T22:47:12.509Z,5.43
2022-09-07T22:49:42.085Z,2.92
2022-09-07T22:52:11.649Z,3.92
2022-09-07T22:54:41.213Z,3.00
2022-09-07T22:57:13.377Z,4.38
2022-09-07T22:59:43.624Z,5.32
2022-09-07T23:02:13.249Z,4.22
2022-09-07T23:04:42.993Z,2.65
2022-09-07T23:07:12.719Z,3.65
2022-09-07T23:09:42.327Z,3.92
2022-09-07T23:12:14.497Z,5.88
2022-09-07T23:14:44.058Z,4.28
2022-09-07T23:17:13.617Z,2.65
2022-09-07T23:19:43.202Z,4.07
2022-09-07T23:22:12.902Z,5.70
2022-09-07T23:24:42.852Z,4.97
2022-09-07T23:27:15.026Z,2.92
2022-09-07T23:29:44.585Z,3.42
2022-09-07T23:32:14.147Z,2.92
2022-09-07T23:34:43.714Z,2.88
2022-09-07T23:37:13.429Z,2.80
2022-09-07T23:39:43.096Z,5.07
2022-09-07T23:42:15.828Z,4.57
2022-09-07T23:44:48.395Z,2.70
2022-09-07T23:47:18.438Z,3.83
2022-09-07T23:49:48.056Z,3.13
2022-09-07T23:52:18.133Z,4.30
2022-09-07T23:54:47.699Z,5.43
2022-09-07T23:57:19.891Z,4.75
2022-09-07T23:59:50.106Z,4.13
